sensor_id;sensor_type;location;lat;lon;timestamp;P1;durP1;ratioP1;P2;durP2;ratioP2
5121;SDS011;2563;52.242;7.956;2023-09-12T00:02:10;20.00;;;11.60;;
5121;SDS011;2563;52.242;7.956;2023-09-12T00:04:36;21.93;;;12.10;;
5121;SDS011;2563;52.242;7.956;2023-09-12T00:07:01;22.80;;;12.50;;
5121;SDS011;2563;52.242;7.956;2023-09-12T00:09:27;20.93;;;11.23;;
5121;SDS011;2563;52.242;7.956;2023-09-12T00:11:53;18.20;;;11.47;;
5121;SDS011;2563;52.242;7.956;2023-09-12T00:14:19;20.60;;;11.03;;
5121;SDS011;2563;52.242;7.956;2023-09-12T00:16:45;20.93;;;11.30;;
5121;SDS011;2563;52.242;7.956;2023-09-12T00:19:11;19.50;;;10.70;;
5121;SDS011;2563;52.242;7.956;2023-09-12T00:21:37;24.07;;;11.63;;
5121;SDS011;2563;52.242;7.956;2023-09-12T00:24:02;29.03;;;13.30;;
5121;SDS011;2563;52.242;7.956;2023-09-12T00:26:27;25.80;;;13.10;;
5121;SDS011;2563;52.242;7.956;2023-09-12T00:28:55;29.13;;;14.00;;
5121;SDS011;2563;52.242;7.956;2023-09-12T00:31:21;27.17;;;13.17;;
5121;SDS011;2563;52.242;7.956;2023-09-12T00:33:46;31.13;;;14.80;;
5121;SDS011;2563;52.242;7.956;2023-09-12T00:36:11;26.57;;;13.60;;
5121;SDS011;2563;52.242;7.956;2023-09-12T00:38:37;26.37;;;13.70;;
5121;SDS011;2563;52.242;7.956;2023-09-12T00:41:02;23.30;;;13.30;;
5121;SDS011;2563;52.242;7.956;2023-09-12T00:43:27;24.43;;;13.93;;
5121;SDS011;2563;52.242;7.956;2023-09-12T00:45:53;25.80;;;13.77;;
5121;SDS011;2563;52.242;7.956;2023-09-12T00:48:18;23.17;;;13.47;;
5121;SDS011;2563;52.242;7.956;2023-09-12T00:50:46;25.23;;;13.47;;
5121;SDS011;2563;52.242;7.956;2023-09-12T00:53:13;33.80;;;15.10;;
5121;SDS011;2563;52.242;7.956;2023-09-12T00:55:42;24.47;;;13.50;;
5121;SDS011;2563;52.242;7.956;2023-09-12T00:58:11;25.10;;;13.57;;
5121;SDS011;2563;52.242;7.956;2023-09-12T01:00:38;25.10;;;12.70;;
5121;SDS011;2563;52.242;7.956;2023-09-12T01:03:05;26.10;;;14.00;;
5121;SDS011;2563;52.242;7.956;2023-09-12T01:05:31;24.67;;;14.13;;
5121;SDS011;2563;52.242;7.956;2023-09-12T01:07:58;29.23;;;13.90;;
5121;SDS011;2563;52.242;7.956;2023-09-12T01:10:25;23.83;;;12.90;;
5121;SDS011;2563;52.242;7.956;2023-09-12T01:12:50;22.97;;;14.77;;
5121;SDS011;2563;52.242;7.956;2023-09-12T01:15:17;24.50;;;13.43;;
5121;SDS011;2563;52.242;7.956;2023-09-12T01:17:43;24.10;;;13.40;;
5121;SDS011;2563;52.242;7.956;2023-09-12T01:20:11;23.80;;;13.50;;
5121;SDS011;2563;52.242;7.956;2023-09-12T01:28:40;27.80;;;13.20;;
5121;SDS011;2563;52.242;7.956;2023-09-12T01:31:09;24.50;;;12.07;;
5121;SDS011;2563;52.242;7.956;2023-09-12T01:33:35;29.80;;;14.70;;
5121;SDS011;2563;52.242;7.956;2023-09-12T01:36:00;24.53;;;13.03;;
5121;SDS011;2563;52.242;7.956;2023-09-12T01:38:26;24.80;;;13.50;;
5121;SDS011;2563;52.242;7.956;2023-09-12T01:40:52;26.47;;;14.87;;
5121;SDS011;2563;52.242;7.956;2023-09-12T01:43:21;27.83;;;14.53;;
5121;SDS011;2563;52.242;7.956;2023-09-12T01:45:55;25.67;;;14.10;;
5121;SDS011;2563;52.242;7.956;2023-09-12T01:48:23;30.13;;;16.77;;
5121;SDS011;2563;52.242;7.956;2023-09-12T01:50:51;31.90;;;17.77;;
5121;SDS011;2563;52.242;7.956;2023-09-12T01:53:17;34.60;;;17.73;;
5121;SDS011;2563;52.242;7.956;2023-09-12T01:55:43;35.33;;;20.57;;
5121;SDS011;2563;52.242;7.956;2023-09-12T01:58:11;33.07;;;18.57;;
5121;SDS011;2563;52.242;7.956;2023-09-12T02:00:37;32.73;;;17.40;;
5121;SDS011;2563;52.242;7.956;2023-09-12T02:03:04;31.03;;;16.03;;
5121;SDS011;2563;52.242;7.956;2023-09-12T02:05:30;27.63;;;15.73;;
5121;SDS011;2563;52.242;7.956;2023-09-12T02:07:55;28.03;;;15.60;;
5121;SDS011;2563;52.242;7.956;2023-09-12T02:10:20;29.97;;;15.80;;
5121;SDS011;2563;52.242;7.956;2023-09-12T02:12:46;30.07;;;16.10;;
5121;SDS011;2563;52.242;7.956;2023-09-12T02:15:12;32.33;;;15.63;;
5121;SDS011;2563;52.242;7.956;2023-09-12T02:17:37;28.27;;;14.13;;
5121;SDS011;2563;52.242;7.956;2023-09-12T02:20:04;29.23;;;14.77;;
5121;SDS011;2563;52.242;7.956;2023-09-12T02:22:31;28.53;;;15.27;;
5121;SDS011;2563;52.242;7.956;2023-09-12T02:24:57;31.73;;;14.63;;
5121;SDS011;2563;52.242;7.956;2023-09-12T02:27:22;25.50;;;15.00;;
5121;SDS011;2563;52.242;7.956;2023-09-12T02:29:47;32.30;;;13.63;;
5121;SDS011;2563;52.242;7.956;2023-09-12T02:32:13;25.27;;;14.77;;
5121;SDS011;2563;52.242;7.956;2023-09-12T02:34:39;26.37;;;15.13;;
5121;SDS011;2563;52.242;7.956;2023-09-12T02:37:04;27.67;;;13.93;;
5121;SDS011;2563;52.242;7.956;2023-09-12T02:39:29;26.83;;;13.27;;
5121;SDS011;2563;52.242;7.956;2023-09-12T02:41:55;25.40;;;14.80;;
5121;SDS011;2563;52.242;7.956;2023-09-12T02:44:20;33.17;;;13.57;;
5121;SDS011;2563;52.242;7.956;2023-09-12T02:46:45;28.40;;;14.70;;
5121;SDS011;2563;52.242;7.956;2023-09-12T02:49:11;27.30;;;14.97;;
5121;SDS011;2563;52.242;7.956;2023-09-12T02:51:39;26.40;;;13.50;;
5121;SDS011;2563;52.242;7.956;2023-09-12T02:54:06;25.10;;;15.17;;
5121;SDS011;2563;52.242;7.956;2023-09-12T02:56:31;25.30;;;14.67;;
5121;SDS011;2563;52.242;7.956;2023-09-12T02:58:57;27.97;;;14.07;;
5121;SDS011;2563;52.242;7.956;2023-09-12T03:01:22;31.07;;;16.30;;
5121;SDS011;2563;52.242;7.956;2023-09-12T03:03:50;28.00;;;14.13;;
5121;SDS011;2563;52.242;7.956;2023-09-12T03:06:15;24.70;;;14.10;;
5121;SDS011;2563;52.242;7.956;2023-09-12T03:08:41;23.50;;;13.67;;
5121;SDS011;2563;52.242;7.956;2023-09-12T03:11:08;28.60;;;13.60;;
5121;SDS011;2563;52.242;7.956;2023-09-12T03:13:34;21.60;;;12.67;;
5121;SDS011;2563;52.242;7.956;2023-09-12T03:15:59;31.47;;;14.00;;
5121;SDS011;2563;52.242;7.956;2023-09-12T03:18:25;27.83;;;14.33;;
5121;SDS011;2563;52.242;7.956;2023-09-12T03:20:51;25.23;;;14.03;;
5121;SDS011;2563;52.242;7.956;2023-09-12T03:23:16;22.33;;;12.70;;
5121;SDS011;2563;52.242;7.956;2023-09-12T03:25:42;22.43;;;11.70;;
5121;SDS011;2563;52.242;7.956;2023-09-12T03:28:07;21.10;;;10.73;;
5121;SDS011;2563;52.242;7.956;2023-09-12T03:30:33;18.23;;;10.70;;
5121;SDS011;2563;52.242;7.956;2023-09-12T03:33:00;17.17;;;10.20;;
5121;SDS011;2563;52.242;7.956;2023-09-12T03:35:25;19.07;;;9.60;;
5121;SDS011;2563;52.242;7.956;2023-09-12T03:37:51;20.80;;;10.27;;
5121;SDS011;2563;52.242;7.956;2023-09-12T03:40:16;21.50;;;10.13;;
5121;SDS011;2563;52.242;7.956;2023-09-12T03:42:42;19.50;;;10.03;;
5121;SDS011;2563;52.242;7.956;2023-09-12T03:45:07;13.83;;;6.67;;
5121;SDS011;2563;52.242;7.956;2023-09-12T03:47:33;11.33;;;5.70;;
5121;SDS011;2563;52.242;7.956;2023-09-12T03:49:59;10.60;;;5.93;;
5121;SDS011;2563;52.242;7.956;2023-09-12T03:52:24;12.27;;;6.47;;
5121;SDS011;2563;52.242;7.956;2023-09-12T03:54:49;14.17;;;6.67;;
5121;SDS011;2563;52.242;7.956;2023-09-12T03:57:15;11.57;;;6.20;;
5121;SDS011;2563;52.242;7.956;2023-09-12T03:59:41;9.47;;;5.03;;
5121;SDS011;2563;52.242;7.956;2023-09-12T04:02:06;9.73;;;5.50;;
5121;SDS011;2563;52.242;7.956;2023-09-12T04:04:32;13.50;;;6.50;;
5121;SDS011;2563;52.242;7.956;2023-09-12T04:06:57;13.23;;;7.17;;
5121;SDS011;2563;52.242;7.956;2023-09-12T04:09:22;16.13;;;7.03;;
5121;SDS011;2563;52.242;7.956;2023-09-12T04:11:48;9.93;;;4.80;;
5121;SDS011;2563;52.242;7.956;2023-09-12T04:14:14;14.53;;;5.43;;
5121;SDS011;2563;52.242;7.956;2023-09-12T04:16:39;13.70;;;4.80;;
5121;SDS011;2563;52.242;7.956;2023-09-12T04:19:05;10.10;;;4.87;;
5121;SDS011;2563;52.242;7.956;2023-09-12T04:21:30;7.80;;;3.73;;
5121;SDS011;2563;52.242;7.956;2023-09-12T04:23:55;8.13;;;4.47;;
5121;SDS011;2563;52.242;7.956;2023-09-12T04:26:21;10.60;;;4.00;;
5121;SDS011;2563;52.242;7.956;2023-09-12T04:28:46;7.77;;;3.77;;
5121;SDS011;2563;52.242;7.956;2023-09-12T04:31:12;8.53;;;4.00;;
5121;SDS011;2563;52.242;7.956;2023-09-12T04:33:38;17.73;;;5.70;;
5121;SDS011;2563;52.242;7.956;2023-09-12T04:36:03;7.97;;;3.60;;
5121;SDS011;2563;52.242;7.956;2023-09-12T04:38:29;9.47;;;4.27;;
5121;SDS011;2563;52.242;7.956;2023-09-12T04:40:59;7.40;;;3.80;;
5121;SDS011;2563;52.242;7.956;2023-09-12T04:43:31;8.93;;;4.47;;
5121;SDS011;2563;52.242;7.956;2023-09-12T04:45:56;9.37;;;4.10;;
5121;SDS011;2563;52.242;7.956;2023-09-12T04:48:22;9.67;;;3.57;;
5121;SDS011;2563;52.242;7.956;2023-09-12T04:50:48;10.40;;;3.97;;
5121;SDS011;2563;52.242;7.956;2023-09-12T04:53:13;8.50;;;4.43;;
5121;SDS011;2563;52.242;7.956;2023-09-12T04:55:39;10.80;;;4.50;;
5121;SDS011;2563;52.242;7.956;2023-09-12T04:58:04;13.83;;;4.93;;
5121;SDS011;2563;52.242;7.956;2023-09-12T05:00:30;8.07;;;4.30;;
5121;SDS011;2563;52.242;7.956;2023-09-12T05:02:56;9.13;;;4.27;;
5121;SDS011;2563;52.242;7.956;2023-09-12T05:05:21;10.17;;;4.23;;
5121;SDS011;2563;52.242;7.956;2023-09-12T05:07:47;8.33;;;3.90;;
5121;SDS011;2563;52.242;7.956;2023-09-12T05:10:12;9.43;;;3.90;;
5121;SDS011;2563;52.242;7.956;2023-09-12T05:12:38;7.17;;;3.77;;
5121;SDS011;2563;52.242;7.956;2023-09-12T05:15:03;9.00;;;4.20;;
5121;SDS011;2563;52.242;7.956;2023-09-12T05:17:29;12.77;;;4.23;;
5121;SDS011;2563;52.242;7.956;2023-09-12T05:19:55;8.30;;;4.37;;
5121;SDS011;2563;52.242;7.956;2023-09-12T05:22:20;6.77;;;3.37;;
5121;SDS011;2563;52.242;7.956;2023-09-12T05:24:45;10.93;;;4.00;;
5121;SDS011;2563;52.242;7.956;2023-09-12T05:27:11;9.33;;;4.10;;
5121;SDS011;2563;52.242;7.956;2023-09-12T05:29:37;10.13;;;4.17;;
5121;SDS011;2563;52.242;7.956;2023-09-12T05:32:03;9.40;;;3.60;;
5121;SDS011;2563;52.242;7.956;2023-09-12T05:34:29;10.80;;;4.30;;
5121;SDS011;2563;52.242;7.956;2023-09-12T05:36:54;8.10;;;3.70;;
5121;SDS011;2563;52.242;7.956;2023-09-12T05:39:20;10.00;;;4.47;;
5121;SDS011;2563;52.242;7.956;2023-09-12T05:41:45;8.13;;;4.27;;
5121;SDS011;2563;52.242;7.956;2023-09-12T05:44:10;9.60;;;4.27;;
5121;SDS011;2563;52.242;7.956;2023-09-12T05:46:38;9.10;;;3.97;;
5121;SDS011;2563;52.242;7.956;2023-09-12T05:49:03;7.87;;;3.93;;
5121;SDS011;2563;52.242;7.956;2023-09-12T05:51:29;8.57;;;4.03;;
5121;SDS011;2563;52.242;7.956;2023-09-12T05:53:54;9.30;;;4.33;;
5121;SDS011;2563;52.242;7.956;2023-09-12T05:56:20;7.97;;;4.20;;
5121;SDS011;2563;52.242;7.956;2023-09-12T05:58:45;8.50;;;4.60;;
5121;SDS011;2563;52.242;7.956;2023-09-12T06:01:11;13.23;;;4.20;;
5121;SDS011;2563;52.242;7.956;2023-09-12T06:03:36;13.30;;;4.47;;
5121;SDS011;2563;52.242;7.956;2023-09-12T06:06:02;12.83;;;5.03;;
5121;SDS011;2563;52.242;7.956;2023-09-12T06:08:27;8.30;;;3.90;;
5121;SDS011;2563;52.242;7.956;2023-09-12T06:10:53;10.97;;;4.30;;
5121;SDS011;2563;52.242;7.956;2023-09-12T06:13:19;9.60;;;4.77;;
5121;SDS011;2563;52.242;7.956;2023-09-12T06:15:45;10.03;;;4.60;;
5121;SDS011;2563;52.242;7.956;2023-09-12T06:18:10;7.60;;;4.70;;
5121;SDS011;2563;52.242;7.956;2023-09-12T06:20:36;10.70;;;4.73;;
5121;SDS011;2563;52.242;7.956;2023-09-12T06:23:01;9.80;;;5.33;;
5121;SDS011;2563;52.242;7.956;2023-09-12T06:25:28;17.47;;;4.33;;
5121;SDS011;2563;52.242;7.956;2023-09-12T06:27:54;22.90;;;5.93;;
5121;SDS011;2563;52.242;7.956;2023-09-12T06:30:19;9.20;;;4.77;;
5121;SDS011;2563;52.242;7.956;2023-09-12T06:32:45;10.13;;;4.50;;
5121;SDS011;2563;52.242;7.956;2023-09-12T06:35:10;9.47;;;5.10;;
5121;SDS011;2563;52.242;7.956;2023-09-12T06:37:37;9.90;;;4.33;;
5121;SDS011;2563;52.242;7.956;2023-09-12T06:40:03;9.93;;;4.47;;
5121;SDS011;2563;52.242;7.956;2023-09-12T06:42:29;12.10;;;5.07;;
5121;SDS011;2563;52.242;7.956;2023-09-12T06:44:54;10.80;;;4.83;;
5121;SDS011;2563;52.242;7.956;2023-09-12T06:47:19;10.57;;;5.53;;
5121;SDS011;2563;52.242;7.956;2023-09-12T06:49:45;10.90;;;5.07;;
5121;SDS011;2563;52.242;7.956;2023-09-12T06:52:10;13.83;;;5.00;;
5121;SDS011;2563;52.242;7.956;2023-09-12T06:54:36;13.77;;;5.47;;
5121;SDS011;2563;52.242;7.956;2023-09-12T06:57:01;11.70;;;4.70;;
5121;SDS011;2563;52.242;7.956;2023-09-12T06:59:27;10.23;;;5.20;;
5121;SDS011;2563;52.242;7.956;2023-09-12T07:01:52;10.53;;;5.17;;
5121;SDS011;2563;52.242;7.956;2023-09-12T07:04:18;15.53;;;5.53;;
5121;SDS011;2563;52.242;7.956;2023-09-12T07:06:43;11.93;;;5.07;;
5121;SDS011;2563;52.242;7.956;2023-09-12T07:09:09;13.50;;;5.60;;
5121;SDS011;2563;52.242;7.956;2023-09-12T07:11:36;15.63;;;7.17;;
5121;SDS011;2563;52.242;7.956;2023-09-12T07:14:02;14.50;;;5.90;;
5121;SDS011;2563;52.242;7.956;2023-09-12T07:16:28;14.60;;;6.20;;
5121;SDS011;2563;52.242;7.956;2023-09-12T07:18:55;17.83;;;7.93;;
5121;SDS011;2563;52.242;7.956;2023-09-12T07:21:20;13.80;;;7.47;;
5121;SDS011;2563;52.242;7.956;2023-09-12T07:23:47;16.50;;;8.03;;
5121;SDS011;2563;52.242;7.956;2023-09-12T07:26:13;17.30;;;8.40;;
5121;SDS011;2563;52.242;7.956;2023-09-12T07:28:39;15.90;;;7.80;;
5121;SDS011;2563;52.242;7.956;2023-09-12T07:31:05;13.60;;;8.00;;
5121;SDS011;2563;52.242;7.956;2023-09-12T07:33:31;13.60;;;7.73;;
5121;SDS011;2563;52.242;7.956;2023-09-12T07:35:56;14.63;;;7.57;;
5121;SDS011;2563;52.242;7.956;2023-09-12T07:38:22;14.97;;;8.10;;
5121;SDS011;2563;52.242;7.956;2023-09-12T07:40:47;17.23;;;7.97;;
5121;SDS011;2563;52.242;7.956;2023-09-12T07:43:13;15.10;;;7.80;;
5121;SDS011;2563;52.242;7.956;2023-09-12T07:45:39;18.00;;;7.43;;
5121;SDS011;2563;52.242;7.956;2023-09-12T07:48:08;16.83;;;7.90;;
5121;SDS011;2563;52.242;7.956;2023-09-12T07:50:35;16.30;;;8.10;;
5121;SDS011;2563;52.242;7.956;2023-09-12T07:53:03;18.17;;;9.13;;
5121;SDS011;2563;52.242;7.956;2023-09-12T07:55:29;17.27;;;7.93;;
5121;SDS011;2563;52.242;7.956;2023-09-12T07:58:01;13.87;;;7.10;;
5121;SDS011;2563;52.242;7.956;2023-09-12T08:00:26;16.67;;;8.90;;
5121;SDS011;2563;52.242;7.956;2023-09-12T08:02:52;15.63;;;8.50;;
5121;SDS011;2563;52.242;7.956;2023-09-12T08:05:17;14.23;;;8.23;;
5121;SDS011;2563;52.242;7.956;2023-09-12T08:07:44;18.40;;;8.67;;
5121;SDS011;2563;52.242;7.956;2023-09-12T08:10:09;19.40;;;8.63;;
5121;SDS011;2563;52.242;7.956;2023-09-12T08:12:36;18.67;;;9.27;;
5121;SDS011;2563;52.242;7.956;2023-09-12T08:15:03;17.90;;;10.00;;
5121;SDS011;2563;52.242;7.956;2023-09-12T08:17:29;18.70;;;10.00;;
5121;SDS011;2563;52.242;7.956;2023-09-12T08:19:55;18.53;;;9.80;;
5121;SDS011;2563;52.242;7.956;2023-09-12T08:22:20;18.57;;;8.93;;
5121;SDS011;2563;52.242;7.956;2023-09-12T08:24:45;20.77;;;10.70;;
5121;SDS011;2563;52.242;7.956;2023-09-12T08:27:11;20.23;;;11.13;;
5121;SDS011;2563;52.242;7.956;2023-09-12T08:29:36;21.40;;;11.80;;
5121;SDS011;2563;52.242;7.956;2023-09-12T08:32:02;21.10;;;11.10;;
5121;SDS011;2563;52.242;7.956;2023-09-12T08:34:27;20.33;;;10.80;;
5121;SDS011;2563;52.242;7.956;2023-09-12T08:36:53;19.23;;;9.70;;
5121;SDS011;2563;52.242;7.956;2023-09-12T08:39:25;20.73;;;11.87;;
5121;SDS011;2563;52.242;7.956;2023-09-12T08:41:53;21.27;;;10.57;;
5121;SDS011;2563;52.242;7.956;2023-09-12T08:44:19;22.20;;;11.30;;
5121;SDS011;2563;52.242;7.956;2023-09-12T08:46:46;17.80;;;10.90;;
5121;SDS011;2563;52.242;7.956;2023-09-12T08:49:11;17.13;;;9.77;;
5121;SDS011;2563;52.242;7.956;2023-09-12T08:51:40;21.77;;;10.97;;
5121;SDS011;2563;52.242;7.956;2023-09-12T08:54:06;28.53;;;10.63;;
5121;SDS011;2563;52.242;7.956;2023-09-12T08:56:32;20.43;;;10.00;;
5121;SDS011;2563;52.242;7.956;2023-09-12T08:59:01;19.30;;;9.97;;
5121;SDS011;2563;52.242;7.956;2023-09-12T09:01:29;22.70;;;11.70;;
5121;SDS011;2563;52.242;7.956;2023-09-12T09:03:55;22.30;;;11.43;;
5121;SDS011;2563;52.242;7.956;2023-09-12T09:06:22;19.33;;;11.60;;
5121;SDS011;2563;52.242;7.956;2023-09-12T09:08:51;21.37;;;11.10;;
5121;SDS011;2563;52.242;7.956;2023-09-12T09:11:17;20.97;;;11.33;;
5121;SDS011;2563;52.242;7.956;2023-09-12T09:13:43;25.80;;;13.00;;
5121;SDS011;2563;52.242;7.956;2023-09-12T09:16:12;28.03;;;11.80;;
5121;SDS011;2563;52.242;7.956;2023-09-12T09:18:54;20.07;;;11.40;;
5121;SDS011;2563;52.242;7.956;2023-09-12T09:21:25;22.30;;;12.90;;
5121;SDS011;2563;52.242;7.956;2023-09-12T09:23:53;23.50;;;12.63;;
5121;SDS011;2563;52.242;7.956;2023-09-12T09:26:19;21.30;;;11.10;;
5121;SDS011;2563;52.242;7.956;2023-09-12T09:28:45;18.50;;;10.00;;
5121;SDS011;2563;52.242;7.956;2023-09-12T09:31:25;24.97;;;11.07;;
5121;SDS011;2563;52.242;7.956;2023-09-12T09:33:50;24.07;;;10.83;;
5121;SDS011;2563;52.242;7.956;2023-09-12T09:36:17;18.17;;;10.77;;
5121;SDS011;2563;52.242;7.956;2023-09-12T09:38:42;18.83;;;10.17;;
5121;SDS011;2563;52.242;7.956;2023-09-12T09:41:08;19.67;;;10.17;;
5121;SDS011;2563;52.242;7.956;2023-09-12T09:43:34;19.10;;;9.83;;
5121;SDS011;2563;52.242;7.956;2023-09-12T09:46:00;15.30;;;9.33;;
5121;SDS011;2563;52.242;7.956;2023-09-12T09:48:25;16.53;;;9.33;;
5121;SDS011;2563;52.242;7.956;2023-09-12T09:51:00;18.97;;;10.10;;
5121;SDS011;2563;52.242;7.956;2023-09-12T09:53:27;18.97;;;10.10;;
5121;SDS011;2563;52.242;7.956;2023-09-12T09:58:35;20.90;;;10.30;;
5121;SDS011;2563;52.242;7.956;2023-09-12T10:01:01;20.47;;;10.43;;
5121;SDS011;2563;52.242;7.956;2023-09-12T10:03:29;25.17;;;10.07;;
5121;SDS011;2563;52.242;7.956;2023-09-12T10:05:59;20.87;;;11.50;;
5121;SDS011;2563;52.242;7.956;2023-09-12T10:08:29;20.20;;;10.80;;
5121;SDS011;2563;52.242;7.956;2023-09-12T10:10:56;20.63;;;10.60;;
5121;SDS011;2563;52.242;7.956;2023-09-12T10:13:21;25.43;;;13.03;;
5121;SDS011;2563;52.242;7.956;2023-09-12T10:15:51;23.30;;;11.10;;
5121;SDS011;2563;52.242;7.956;2023-09-12T10:18:19;20.43;;;11.60;;
5121;SDS011;2563;52.242;7.956;2023-09-12T10:20:54;19.53;;;11.80;;
5121;SDS011;2563;52.242;7.956;2023-09-12T10:23:34;19.10;;;11.57;;
5121;SDS011;2563;52.242;7.956;2023-09-12T10:26:07;17.23;;;10.07;;
5121;SDS011;2563;52.242;7.956;2023-09-12T10:28:35;22.97;;;11.43;;
5121;SDS011;2563;52.242;7.956;2023-09-12T10:31:03;22.23;;;10.03;;
5121;SDS011;2563;52.242;7.956;2023-09-12T10:33:30;19.80;;;10.60;;
5121;SDS011;2563;52.242;7.956;2023-09-12T10:35:56;19.27;;;10.17;;
5121;SDS011;2563;52.242;7.956;2023-09-12T10:38:23;16.53;;;9.17;;
5121;SDS011;2563;52.242;7.956;2023-09-12T10:40:51;16.70;;;9.60;;
5121;SDS011;2563;52.242;7.956;2023-09-12T10:43:19;19.13;;;9.50;;
5121;SDS011;2563;52.242;7.956;2023-09-12T10:45:46;20.07;;;11.77;;
5121;SDS011;2563;52.242;7.956;2023-09-12T10:48:13;22.80;;;11.13;;
5121;SDS011;2563;52.242;7.956;2023-09-12T10:50:39;18.43;;;10.90;;
5121;SDS011;2563;52.242;7.956;2023-09-12T10:53:09;19.73;;;10.10;;
5121;SDS011;2563;52.242;7.956;2023-09-12T10:55:39;19.93;;;10.73;;
5121;SDS011;2563;52.242;7.956;2023-09-12T10:58:05;17.43;;;9.67;;
5121;SDS011;2563;52.242;7.956;2023-09-12T11:00:32;16.60;;;8.80;;
5121;SDS011;2563;52.242;7.956;2023-09-12T11:02:58;16.57;;;9.20;;
5121;SDS011;2563;52.242;7.956;2023-09-12T11:07:56;16.77;;;9.03;;
5121;SDS011;2563;52.242;7.956;2023-09-12T11:10:23;14.37;;;8.40;;
5121;SDS011;2563;52.242;7.956;2023-09-12T11:12:53;18.50;;;9.13;;
5121;SDS011;2563;52.242;7.956;2023-09-12T11:15:20;18.30;;;11.07;;
5121;SDS011;2563;52.242;7.956;2023-09-12T11:17:47;21.00;;;11.00;;
5121;SDS011;2563;52.242;7.956;2023-09-12T11:20:14;20.93;;;11.33;;
5121;SDS011;2563;52.242;7.956;2023-09-12T11:22:42;23.47;;;11.87;;
5121;SDS011;2563;52.242;7.956;2023-09-12T11:32:46;14.43;;;7.80;;
5121;SDS011;2563;52.242;7.956;2023-09-12T11:35:13;13.83;;;7.53;;
5121;SDS011;2563;52.242;7.956;2023-09-12T11:37:40;14.00;;;8.20;;
5121;SDS011;2563;52.242;7.956;2023-09-12T11:42:42;18.93;;;8.73;;
5121;SDS011;2563;52.242;7.956;2023-09-12T11:45:09;16.03;;;9.27;;
5121;SDS011;2563;52.242;7.956;2023-09-12T11:47:39;14.33;;;8.10;;
5121;SDS011;2563;52.242;7.956;2023-09-12T11:50:06;12.47;;;7.60;;
5121;SDS011;2563;52.242;7.956;2023-09-12T11:52:35;11.10;;;6.63;;
5121;SDS011;2563;52.242;7.956;2023-09-12T11:55:02;11.30;;;6.57;;
5121;SDS011;2563;52.242;7.956;2023-09-12T11:57:28;10.70;;;5.80;;
5121;SDS011;2563;52.242;7.956;2023-09-12T11:59:54;14.30;;;6.60;;
5121;SDS011;2563;52.242;7.956;2023-09-12T12:02:21;8.80;;;5.83;;
5121;SDS011;2563;52.242;7.956;2023-09-12T12:04:46;11.13;;;6.27;;
5121;SDS011;2563;52.242;7.956;2023-09-12T12:07:12;13.80;;;6.30;;
5121;SDS011;2563;52.242;7.956;2023-09-12T12:09:38;13.20;;;6.37;;
5121;SDS011;2563;52.242;7.956;2023-09-12T12:12:12;10.43;;;6.37;;
5121;SDS011;2563;52.242;7.956;2023-09-12T12:14:39;9.70;;;5.83;;
5121;SDS011;2563;52.242;7.956;2023-09-12T12:17:08;8.30;;;5.37;;
5121;SDS011;2563;52.242;7.956;2023-09-12T12:19:35;12.60;;;6.50;;
5121;SDS011;2563;52.242;7.956;2023-09-12T12:22:02;10.03;;;6.40;;
5121;SDS011;2563;52.242;7.956;2023-09-12T12:24:36;10.13;;;5.87;;
5121;SDS011;2563;52.242;7.956;2023-09-12T12:27:03;12.00;;;6.47;;
5121;SDS011;2563;52.242;7.956;2023-09-12T12:29:29;11.70;;;5.80;;
5121;SDS011;2563;52.242;7.956;2023-09-12T12:31:59;11.93;;;6.17;;
5121;SDS011;2563;52.242;7.956;2023-09-12T12:34:26;10.50;;;5.60;;
5121;SDS011;2563;52.242;7.956;2023-09-12T12:36:51;8.50;;;5.13;;
5121;SDS011;2563;52.242;7.956;2023-09-12T12:39:18;14.23;;;6.40;;
5121;SDS011;2563;52.242;7.956;2023-09-12T12:41:43;8.73;;;5.90;;
5121;SDS011;2563;52.242;7.956;2023-09-12T12:44:09;9.63;;;5.73;;
5121;SDS011;2563;52.242;7.956;2023-09-12T12:46:47;14.23;;;6.33;;
5121;SDS011;2563;52.242;7.956;2023-09-12T12:49:14;14.23;;;5.90;;
5121;SDS011;2563;52.242;7.956;2023-09-12T12:51:41;11.57;;;5.60;;
5121;SDS011;2563;52.242;7.956;2023-09-12T12:54:07;9.20;;;5.63;;
5121;SDS011;2563;52.242;7.956;2023-09-12T12:56:33;10.27;;;5.60;;
5121;SDS011;2563;52.242;7.956;2023-09-12T12:58:59;8.77;;;4.97;;
5121;SDS011;2563;52.242;7.956;2023-09-12T13:01:28;8.43;;;5.60;;
5121;SDS011;2563;52.242;7.956;2023-09-12T13:03:54;8.70;;;5.10;;
5121;SDS011;2563;52.242;7.956;2023-09-12T13:06:21;8.10;;;5.27;;
5121;SDS011;2563;52.242;7.956;2023-09-12T13:08:48;12.50;;;5.83;;
5121;SDS011;2563;52.242;7.956;2023-09-12T13:11:14;8.07;;;4.97;;
5121;SDS011;2563;52.242;7.956;2023-09-12T13:13:41;12.50;;;5.43;;
5121;SDS011;2563;52.242;7.956;2023-09-12T13:16:08;9.60;;;5.33;;
5121;SDS011;2563;52.242;7.956;2023-09-12T13:18:39;8.03;;;5.33;;
5121;SDS011;2563;52.242;7.956;2023-09-12T13:21:05;10.83;;;5.57;;
5121;SDS011;2563;52.242;7.956;2023-09-12T13:23:33;9.37;;;6.73;;
5121;SDS011;2563;52.242;7.956;2023-09-12T13:25:58;10.00;;;5.70;;
5121;SDS011;2563;52.242;7.956;2023-09-12T13:28:24;10.40;;;6.20;;
5121;SDS011;2563;52.242;7.956;2023-09-12T13:30:51;10.93;;;5.90;;
5121;SDS011;2563;52.242;7.956;2023-09-12T13:33:17;9.53;;;5.70;;
5121;SDS011;2563;52.242;7.956;2023-09-12T13:35:42;10.90;;;6.33;;
5121;SDS011;2563;52.242;7.956;2023-09-12T13:38:08;12.13;;;5.67;;
5121;SDS011;2563;52.242;7.956;2023-09-12T13:40:39;11.10;;;5.97;;
5121;SDS011;2563;52.242;7.956;2023-09-12T13:43:08;9.43;;;5.30;;
5121;SDS011;2563;52.242;7.956;2023-09-12T13:45:34;12.50;;;6.00;;
5121;SDS011;2563;52.242;7.956;2023-09-12T13:48:00;7.87;;;5.10;;
5121;SDS011;2563;52.242;7.956;2023-09-12T13:50:26;8.13;;;5.30;;
5121;SDS011;2563;52.242;7.956;2023-09-12T13:52:59;10.53;;;6.00;;
5121;SDS011;2563;52.242;7.956;2023-09-12T13:55:28;8.40;;;5.57;;
5121;SDS011;2563;52.242;7.956;2023-09-12T13:57:54;10.23;;;5.53;;
5121;SDS011;2563;52.242;7.956;2023-09-12T14:00:20;13.00;;;6.83;;
5121;SDS011;2563;52.242;7.956;2023-09-12T14:02:45;11.20;;;5.90;;
5121;SDS011;2563;52.242;7.956;2023-09-12T14:05:13;8.53;;;5.37;;
5121;SDS011;2563;52.242;7.956;2023-09-12T14:07:39;11.33;;;5.80;;
5121;SDS011;2563;52.242;7.956;2023-09-12T14:10:07;9.10;;;5.40;;
5121;SDS011;2563;52.242;7.956;2023-09-12T14:12:33;9.63;;;5.97;;
5121;SDS011;2563;52.242;7.956;2023-09-12T14:14:58;9.20;;;5.37;;
5121;SDS011;2563;52.242;7.956;2023-09-12T14:17:24;10.60;;;5.90;;
5121;SDS011;2563;52.242;7.956;2023-09-12T14:19:49;11.80;;;5.40;;
5121;SDS011;2563;52.242;7.956;2023-09-12T14:22:15;8.07;;;5.57;;
5121;SDS011;2563;52.242;7.956;2023-09-12T14:24:40;10.00;;;5.53;;
5121;SDS011;2563;52.242;7.956;2023-09-12T14:27:06;7.70;;;4.57;;
5121;SDS011;2563;52.242;7.956;2023-09-12T14:29:31;8.60;;;5.00;;
5121;SDS011;2563;52.242;7.956;2023-09-12T14:31:56;9.93;;;5.50;;
5121;SDS011;2563;52.242;7.956;2023-09-12T14:34:25;7.37;;;4.80;;
5121;SDS011;2563;52.242;7.956;2023-09-12T14:36:54;8.13;;;4.93;;
5121;SDS011;2563;52.242;7.956;2023-09-12T14:39:20;7.33;;;4.77;;
5121;SDS011;2563;52.242;7.956;2023-09-12T14:41:49;9.20;;;5.67;;
5121;SDS011;2563;52.242;7.956;2023-09-12T14:44:26;9.80;;;5.13;;
5121;SDS011;2563;52.242;7.956;2023-09-12T14:46:53;7.83;;;5.07;;
5121;SDS011;2563;52.242;7.956;2023-09-12T14:49:18;9.00;;;4.90;;
5121;SDS011;2563;52.242;7.956;2023-09-12T14:51:44;7.70;;;4.77;;
5121;SDS011;2563;52.242;7.956;2023-09-12T14:54:09;8.67;;;5.13;;
5121;SDS011;2563;52.242;7.956;2023-09-12T14:56:35;7.80;;;4.90;;
5121;SDS011;2563;52.242;7.956;2023-09-12T14:59:01;7.40;;;4.70;;
5121;SDS011;2563;52.242;7.956;2023-09-12T15:01:27;7.50;;;4.67;;
5121;SDS011;2563;52.242;7.956;2023-09-12T15:03:53;6.93;;;4.53;;
5121;SDS011;2563;52.242;7.956;2023-09-12T15:06:19;6.63;;;4.27;;
5121;SDS011;2563;52.242;7.956;2023-09-12T15:08:44;10.00;;;5.77;;
5121;SDS011;2563;52.242;7.956;2023-09-12T15:11:10;7.67;;;4.60;;
5121;SDS011;2563;52.242;7.956;2023-09-12T15:13:36;9.27;;;5.60;;
5121;SDS011;2563;52.242;7.956;2023-09-12T15:16:02;9.87;;;6.17;;
5121;SDS011;2563;52.242;7.956;2023-09-12T15:18:28;7.53;;;4.80;;